Big Bear Station Historical Data
Daily Summary for February 17, 2019 Units:  English    Metric   Both
Next Day »
Daily Weekly Monthly Yearly Custom
  High: Low: Average:
Temperature: 30.7 °F 16.9 °F 22.6 °F
Dew Point: 23.4 °F 8.0 °F 18.3 °F
Humidity: 95% 49% 84%
Wind Speed: 16.6mph 0.0mph 3.7mph
Wind Gust: -999.0mph - -
Wind- - West
Pressure: 23.33 in 23.19 in -
Precipitation: 0.02 in    
Historical Graphs
 
 
Tabular Data for February 17, 2019
Time Temperature Dew Point Pressure Wind Wind Speed Wind Gust Humidity Rainfall Rate (Hourly)
00:15 23.5 °F 18.8 °F 23.33 in NW 3.2 mph -999.0 mph 82% 0.00 in
00:30 23.5 °F 19.4 °F 23.32 in NNW 5.8 mph -999.0 mph 84% 0.00 in
00:45 23.7 °F 19.9 °F 23.32 in NNW 5.8 mph -999.0 mph 85% 0.00 in
01:01 23.7 °F 20.4 °F 23.32 in West 3.2 mph -999.0 mph 87% 0.00 in
01:16 23.7 °F 19.9 °F 23.31 in NW 5.8 mph -999.0 mph 85% 0.00 in
01:31 24.3 °F 19.0 °F 23.30 in West 3.7 mph -999.0 mph 80% 0.00 in
01:47 24.1 °F 19.4 °F 23.31 in WNW 3.7 mph -999.0 mph 82% 0.00 in
02:02 23.9 °F 18.6 °F 23.31 in NW 9.9 mph -999.0 mph 80% 0.00 in
02:17 23.5 °F 18.5 °F 23.31 in WNW 6.8 mph -999.0 mph 81% 0.00 in
02:32 23.0 °F 20.0 °F 23.30 in ENE 4.2 mph -999.0 mph 88% 0.00 in
02:47 22.3 °F 20.3 °F 23.30 in WNW 3.7 mph -999.0 mph 92% 0.00 in
03:03 21.0 °F 19.0 °F 23.30 in NW 6.3 mph -999.0 mph 92% 0.00 in
03:18 20.7 °F 18.7 °F 23.29 in NNW 5.8 mph -999.0 mph 92% 0.00 in
03:33 20.3 °F 18.3 °F 23.28 in WNW 4.2 mph -999.0 mph 92% 0.00 in
03:48 20.1 °F 18.2 °F 23.29 in NW 2.7 mph -999.0 mph 92% 0.00 in
04:04 19.6 °F 17.1 °F 23.29 in NW 3.2 mph -999.0 mph 90% 0.00 in
04:19 18.9 °F 16.2 °F 23.29 in NW 9.4 mph -999.0 mph 89% 0.00 in
04:35 18.7 °F 15.7 °F 23.28 in WSW 3.7 mph -999.0 mph 88% 0.00 in
04:50 18.1 °F 14.9 °F 23.28 in Calm   -999.0 mph 87% 0.00 in
05:05 17.2 °F 14.3 °F 23.28 in Calm   -999.0 mph 88% 0.00 in
05:20 16.9 °F 14.0 °F 23.28 in SSE 2.2 mph -999.0 mph 88% 0.00 in
05:35 16.9 °F 13.2 °F 23.28 in South 3.2 mph -999.0 mph 85% 0.00 in
05:51 18.5 °F 13.9 °F 23.28 in NNW 4.7 mph -999.0 mph 82% 0.00 in
06:06 19.2 °F 14.0 °F 23.28 in NW 2.7 mph -999.0 mph 80% 0.00 in
06:22 19.0 °F 13.3 °F 23.28 in Calm   -999.0 mph 78% 0.00 in
06:37 19.4 °F 13.7 °F 23.28 in Calm   -999.0 mph 78% 0.00 in
06:52 19.0 °F 13.8 °F 23.29 in Calm   -999.0 mph 80% 0.00 in
07:08 18.9 °F 14.3 °F 23.29 in South 2.7 mph -999.0 mph 82% 0.00 in
07:23 18.7 °F 14.7 °F 23.30 in WSW 4.2 mph -999.0 mph 84% 0.00 in
07:39 19.0 °F 15.8 °F 23.30 in Calm   -999.0 mph 87% 0.00 in
07:54 19.4 °F 14.8 °F 23.30 in NW 4.7 mph -999.0 mph 82% 0.00 in
08:09 20.7 °F 12.5 °F 23.30 in NW 4.2 mph -999.0 mph 70% 0.00 in
08:25 21.6 °F 8.3 °F 23.31 in SW 1.7 mph -999.0 mph 56% 0.00 in
08:40 21.9 °F 10.1 °F 23.31 in Calm   -999.0 mph 60% 0.00 in
08:55 22.5 °F 8.8 °F 23.31 in Calm   -999.0 mph 55% 0.00 in
09:10 23.5 °F 8.0 °F 23.31 in West 2.7 mph -999.0 mph 51% 0.00 in
09:25 24.8 °F 8.3 °F 23.31 in WSW 2.7 mph -999.0 mph 49% 0.00 in
09:41 25.3 °F 11.0 °F 23.30 in SW 1.7 mph -999.0 mph 54% 0.00 in
09:56 26.1 °F 13.7 °F 23.30 in NW 4.7 mph -999.0 mph 59% 0.00 in
10:11 27.7 °F 16.7 °F 23.31 in SW 1.7 mph -999.0 mph 63% 0.00 in
10:26 28.4 °F 18.8 °F 23.30 in SSW 1.1 mph -999.0 mph 67% 0.00 in
10:41 28.8 °F 19.2 °F 23.31 in WSW 4.7 mph -999.0 mph 67% 0.00 in
10:57 30.4 °F 21.4 °F 23.31 in WNW 2.7 mph -999.0 mph 69% 0.00 in
11:12 30.7 °F 21.7 °F 23.31 in South 4.7 mph -999.0 mph 69% 0.00 in
11:27 30.6 °F 22.3 °F 23.31 in SE 2.7 mph -999.0 mph 71% 0.00 in
11:42 28.0 °F 21.1 °F 23.30 in NNW 6.3 mph -999.0 mph 75% 0.00 in
11:57 29.8 °F 21.2 °F 23.30 in South 5.3 mph -999.0 mph 70% 0.00 in
12:13 28.9 °F 19.7 °F 23.28 in North 3.7 mph -999.0 mph 68% 0.00 in
12:28 27.9 °F 21.0 °F 23.28 in SSW 7.3 mph -999.0 mph 75% 0.00 in
12:43 27.1 °F 21.5 °F 23.27 in Calm   -999.0 mph 79% 0.00 in
12:58 25.9 °F 21.2 °F 23.27 in North 1.7 mph -999.0 mph 82% 0.00 in
13:14 25.9 °F 20.9 °F 23.25 in West 4.2 mph -999.0 mph 81% 0.00 in
13:29 25.0 °F 21.4 °F 23.25 in SSW 3.7 mph -999.0 mph 86% 0.00 in
13:44 25.5 °F 21.9 °F 23.24 in NNW 2.2 mph -999.0 mph 86% 0.00 in
13:59 23.9 °F 21.1 °F 23.24 in WSW 1.7 mph -999.0 mph 89% 0.00 in
14:15 24.4 °F 21.9 °F 23.24 in SSW 4.7 mph -999.0 mph 90% 0.00 in
14:30 24.8 °F 21.8 °F 23.24 in South 3.7 mph -999.0 mph 88% 0.00 in
14:46 24.6 °F 22.3 °F 23.23 in NNW 7.3 mph -999.0 mph 91% 0.00 in
15:01 24.4 °F 22.4 °F 23.22 in NNW 3.2 mph -999.0 mph 92% 0.00 in
15:16 25.7 °F 22.9 °F 23.22 in ESE 2.7 mph -999.0 mph 89% 0.00 in
15:32 26.2 °F 23.1 °F 23.20 in West 6.3 mph -999.0 mph 88% 0.00 in
15:47 25.7 °F 23.4 °F 23.20 in WSW 1.1 mph -999.0 mph 91% 0.00 in
16:02 25.2 °F 23.2 °F 23.19 in NW 4.2 mph -999.0 mph 92% 0.00 in
16:18 25.0 °F 23.0 °F 23.21 in NW 16.6 mph -999.0 mph 92% 0.00 in
16:33 24.8 °F 23.1 °F 23.20 in SSW 2.2 mph -999.0 mph 93% 0.00 in
16:48 24.8 °F 23.3 °F 23.20 in WNW 4.7 mph -999.0 mph 94% 0.00 in
17:03 23.7 °F 21.5 °F 23.20 in NW 8.9 mph -999.0 mph 91% 0.00 in
17:18 22.8 °F 20.3 °F 23.20 in NNW 6.3 mph -999.0 mph 90% 0.00 in
17:34 22.6 °F 21.1 °F 23.20 in West 1.7 mph -999.0 mph 94% 0.00 in
17:49 22.3 °F 20.1 °F 23.20 in South 4.2 mph -999.0 mph 91% 0.00 in
18:04 22.3 °F 20.3 °F 23.20 in North 4.7 mph -999.0 mph 92% 0.00 in
18:19 22.8 °F 21.3 °F 23.19 in SW 2.2 mph -999.0 mph 94% 0.00 in
18:35 23.5 °F 22.3 °F 23.19 in North 7.3 mph -999.0 mph 95% 0.00 in
18:50 23.9 °F 22.7 °F 23.19 in West 3.7 mph -999.0 mph 95% 0.00 in
19:05 24.1 °F 22.9 °F 23.20 in NW 4.7 mph -999.0 mph 95% 0.00 in
19:20 22.5 °F 21.3 °F 23.21 in NW 5.3 mph -999.0 mph 95% 0.00 in
19:36 21.7 °F 20.2 °F 23.20 in NNW 3.2 mph -999.0 mph 94% 0.00 in
19:51 21.2 °F 19.7 °F 23.21 in NW 3.2 mph -999.0 mph 94% 0.00 in
20:06 21.0 °F 19.8 °F 23.21 in NNW 4.7 mph -999.0 mph 95% 0.00 in
20:22 20.1 °F 18.7 °F 23.21 in West 4.2 mph -999.0 mph 94% 0.00 in
20:37 19.8 °F 18.4 °F 23.21 in WNW 1.7 mph -999.0 mph 94% 0.00 in
20:52 19.4 °F 18.0 °F 23.21 in WNW 5.8 mph -999.0 mph 94% 0.00 in
21:07 19.2 °F 17.8 °F 23.22 in Calm   -999.0 mph 94% 0.00 in
21:22 19.0 °F 17.6 °F 23.22 in Calm   -999.0 mph 94% 0.00 in
21:38 19.0 °F 17.6 °F 23.22 in NNW 2.7 mph -999.0 mph 94% 0.00 in
21:53 19.2 °F 17.8 °F 23.23 in WNW 2.7 mph -999.0 mph 94% 0.00 in
22:08 19.2 °F 17.8 °F 23.23 in East 2.2 mph -999.0 mph 94% 0.00 in
22:23 19.0 °F 17.6 °F 23.23 in SW 2.2 mph -999.0 mph 94% 0.00 in
22:38 18.9 °F 17.5 °F 23.23 in NW 3.7 mph -999.0 mph 94% 0.00 in
22:54 19.0 °F 17.3 °F 23.23 in WNW 5.8 mph -999.0 mph 93% 0.00 in
23:09 18.7 °F 16.8 °F 23.23 in WNW 2.7 mph -999.0 mph 92% 0.00 in
23:24 17.8 °F 15.4 °F 23.23 in West 2.7 mph -999.0 mph 90% 0.00 in
23:39 17.2 °F 14.8 °F 23.23 in WNW 3.2 mph -999.0 mph 90% 0.00 in
23:55 17.4 °F 15.0 °F 23.23 in NNW 4.7 mph -999.0 mph 90% 0.00 in
Big Bear CA Weather